Time;durP1;ratioP1;P1;durP2;ratioP2;P2;SDS_P1;SDS_P2;PMS_P1;PMS_P2;Temp;Humidity;BMP_temperature;BMP_pressure;BME280_temperature;BME280_humidity;BME280_pressure;Samples;Min_cycle;Max_cycle;Signal;HPM_P1;HPM_P2
2022/07/20 00:00:03;;;;;;;;;;;;;;;;;;5176210;27;19964;-91
2022/07/20 00:02:28;;;;;;;;;;;;;;;;;;5157452;27;19960;-90
2022/07/20 00:04:54;;;;;;;;;;;;;;;;;;5176039;27;19919;-89
2022/07/20 00:07:19;;;;;;;;;;;;;;;;;;5176019;27;19915;-92
2022/07/20 00:12:29;;;;;;;;;;;;;;;;;;5175932;27;19925;-90
2022/07/20 00:14:54;;;;;;;;;;;;;;;;;;5176014;27;19919;-90
2022/07/20 00:17:20;;;;;;;;;;;;;;;;;;5175925;27;19915;-89
2022/07/20 00:19:45;;;;;;;;;;;;;;;;;;5175876;27;19919;-91
2022/07/20 00:22:10;;;;;;;;;;;;;;;;;;5175675;27;20381;-92
2022/07/20 00:24:36;;;;;;;;;;;;;;;;;;5175937;27;20357;-88
2022/07/20 00:27:01;;;;;;;;;;;;;;;;;;5157078;27;19911;-91
2022/07/20 00:29:27;;;;;;;;;;;;;;;;;;5175768;27;19922;-88
2022/07/20 00:31:52;;;;;;;;;;;;;;;;;;5175621;27;19911;-84
2022/07/20 00:34:18;;;;;;;;;;;;;;;;;;5175593;27;19915;-85
2022/07/20 00:36:43;;;;;;;;;;;;;;;;;;5175697;27;19923;-87
2022/07/20 00:39:09;;;;;;;;;;;;;;;;;;5175603;27;20021;-87
2022/07/20 00:41:34;;;;;;;;;;;;;;;;;;5175481;27;19993;-85
2022/07/20 00:44:01;;;;;;;;;;;;;;;;;;5175602;27;19960;-84
2022/07/20 00:46:28;;;;;;;;;;;;;;;;;;5175504;27;19915;-85
2022/07/20 00:48:54;;;;;;;;;;;;;;;;;;5175530;27;19961;-84
2022/07/20 00:51:19;;;;;;;;;;;;;;;;;;5175445;27;19922;-84
2022/07/20 00:53:46;;;;;;;;;;;;;;;;;;5175313;27;19915;-91
2022/07/20 00:56:12;;;;;;;;;;;;;;;;;;5175488;27;19918;-87
2022/07/20 00:58:37;;;;;;;;;;;;;;;;;;5175549;27;20373;-85
2022/07/20 01:01:03;;;;;;;;;;;;;;;;;;5176099;27;20286;-85
2022/07/20 01:03:28;;;;;;;;;;;;;;;;;;5179076;27;20013;-88
2022/07/20 01:05:53;;;;;;;;;;;;;;;;;;5179779;27;20001;-90
2022/07/20 01:08:19;;;;;;;;;;;;;;;;;;5193299;27;19960;-85
2022/07/20 01:10:45;;;;;;;;;;;;;;;;;;5191163;27;19911;-85
2022/07/20 01:13:11;;;;;;;;;;;;;;;;;;5191740;27;19899;-86
2022/07/20 01:15:36;;;;;;;;;;;;;;;;;;5195484;27;19922;-86
2022/07/20 01:18:02;;;;;;;;;;;;;;;;;;5183992;27;19915;-94
2022/07/20 01:20:29;;;;;;;;;;;;;;;;;;5165397;27;19926;-92
2022/07/20 01:22:55;;;;;;;;;;;;;;;;;;5180220;27;19922;-91
2022/07/20 01:25:20;;;;;;;;;;;;;;;;;;5180034;27;19922;-87
2022/07/20 01:27:45;;;;;;;;;;;;;;;;;;5179548;27;19911;-91
2022/07/20 01:30:11;;;;;;;;;;;;;;;;;;5179187;27;19939;-92
2022/07/20 01:32:36;;;;;;;;;;;;;;;;;;5179046;27;19960;-93
2022/07/20 01:35:02;;;;;;;;;;;;;;;;;;5178908;27;20388;-91
2022/07/20 01:37:30;;;;;;;;;;;;;;;;;;5178883;27;19921;-92
2022/07/20 01:39:56;;;;;;;;;;;;;;;;;;5160186;27;19921;-93
2022/07/20 01:42:21;;;;;;;;;;;;;;;;;;5178988;27;19918;-92
2022/07/20 01:44:47;;;;;;;;;;;;;;;;;;5160223;27;19922;-91
2022/07/20 01:47:12;;;;;;;;;;;;;;;;;;5178775;27;19915;-90
2022/07/20 01:49:38;;;;;;;;;;;;;;;;;;5178764;27;19915;-93
2022/07/20 01:52:03;;;;;;;;;;;;;;;;;;5178714;27;19926;-90
2022/07/20 01:54:29;;;;;;;;;;;;;;;;;;5160120;27;19915;-92
2022/07/20 01:56:55;;;;;;;;;;;;;;;;;;5178534;27;19954;-94
2022/07/20 01:59:20;;;;;;;;;;;;;;;;;;5178555;27;19958;-92
2022/07/20 02:01:46;;;;;;;;;;;;;;;;;;5178585;27;20370;-91
2022/07/20 02:04:11;;;;;;;;;;;;;;;;;;5159840;27;19918;-92
2022/07/20 02:06:36;;;;;;;;;;;;;;;;;;5159424;27;19938;-91
2022/07/20 02:09:03;;;;;;;;;;;;;;;;;;5178206;27;19960;-87
2022/07/20 02:11:28;;;;;;;;;;;;;;;;;;5178464;27;19911;-90
2022/07/20 02:13:54;;;;;;;;;;;;;;;;;;5177863;27;19919;-92
2022/07/20 02:16:20;;;;;;;;;;;;;;;;;;5159613;27;20286;-91
2022/07/20 02:18:52;;;;;;;;;;;;;;;;;;5178252;27;19961;-90
2022/07/20 02:21:19;;;;;;;;;;;;;;;;;;5177969;27;19927;-93
2022/07/20 02:23:44;;;;;;;;;;;;;;;;;;5178059;27;20293;-90
2022/07/20 02:26:10;;;;;;;;;;;;;;;;;;5178125;27;19915;-90
2022/07/20 02:28:35;;;;;;;;;;;;;;;;;;5177963;27;19922;-90
2022/07/20 02:31:01;;;;;;;;;;;;;;;;;;5177773;27;20009;-92
2022/07/20 02:33:26;;;;;;;;;;;;;;;;;;5159078;27;19915;-90
2022/07/20 02:35:52;;;;;;;;;;;;;;;;;;5159225;27;19962;-93
2022/07/20 02:38:18;;;;;;;;;;;;;;;;;;5159119;27;19915;-92
2022/07/20 02:40:43;;;;;;;;;;;;;;;;;;5177814;27;19962;-93
2022/07/20 02:43:08;;;;;;;;;;;;;;;;;;5177747;27;19941;-92
2022/07/20 02:45:34;;;;;;;;;;;;;;;;;;5177814;27;19918;-90
2022/07/20 02:48:03;;;;;;;;;;;;;;;;;;5177593;27;19915;-89
2022/07/20 02:50:33;;;;;;;;;;;;;;;;;;5177623;27;19922;-91
2022/07/20 02:52:59;;;;;;;;;;;;;;;;;;5177505;27;19915;-92
2022/07/20 02:55:24;;;;;;;;;;;;;;;;;;5177539;27;19923;-91
2022/07/20 02:57:50;;;;;;;;;;;;;;;;;;5177582;27;20293;-90
2022/07/20 03:00:15;;;;;;;;;;;;;;;;;;5177536;27;20051;-89
2022/07/20 03:02:41;;;;;;;;;;;;;;;;;;5177188;27;19922;-93
2022/07/20 03:05:06;;;;;;;;;;;;;;;;;;5177120;27;20263;-92
2022/07/20 03:07:32;;;;;;;;;;;;;;;;;;5177208;27;19921;-91
2022/07/20 03:09:57;;;;;;;;;;;;;;;;;;5177105;27;19922;-89
2022/07/20 03:12:23;;;;;;;;;;;;;;;;;;5176980;27;19915;-91
2022/07/20 03:14:48;;;;;;;;;;;;;;;;;;5176862;27;19957;-94
2022/07/20 03:17:13;;;;;;;;;;;;;;;;;;5177151;27;20429;-93
2022/07/20 03:19:39;;;;;;;;;;;;;;;;;;5158084;27;19923;-93
2022/07/20 03:22:05;;;;;;;;;;;;;;;;;;5176731;27;19919;-92
2022/07/20 03:24:30;;;;;;;;;;;;;;;;;;5176153;27;20369;-93
2022/07/20 03:26:56;;;;;;;;;;;;;;;;;;5176995;27;19915;-94
2022/07/20 03:29:21;;;;;;;;;;;;;;;;;;5176799;27;19970;-92
2022/07/20 03:31:46;;;;;;;;;;;;;;;;;;5177884;27;20374;-92
2022/07/20 03:34:12;;;;;;;;;;;;;;;;;;5178419;27;19926;-87
2022/07/20 03:36:37;;;;;;;;;;;;;;;;;;5178653;27;19914;-84
2022/07/20 03:39:03;;;;;;;;;;;;;;;;;;5176456;27;19983;-85
2022/07/20 03:41:28;;;;;;;;;;;;;;;;;;5176386;27;20005;-85
2022/07/20 03:43:53;;;;;;;;;;;;;;;;;;5157526;27;20009;-84
2022/07/20 03:46:19;;;;;;;;;;;;;;;;;;5176158;27;19950;-84
2022/07/20 03:48:45;;;;;;;;;;;;;;;;;;5176345;27;19937;-85
2022/07/20 03:51:10;;;;;;;;;;;;;;;;;;5176165;27;19922;-85
2022/07/20 03:53:36;;;;;;;;;;;;;;;;;;5176039;27;20366;-84
2022/07/20 03:56:01;;;;;;;;;;;;;;;;;;5176136;27;19921;-84
2022/07/20 03:58:26;;;;;;;;;;;;;;;;;;5157357;27;19910;-84
2022/07/20 04:00:52;;;;;;;;;;;;;;;;;;5176078;27;20266;-85
2022/07/20 04:03:17;;;;;;;;;;;;;;;;;;5175984;27;20314;-85
2022/07/20 04:05:43;;;;;;;;;;;;;;;;;;5176044;27;20333;-83
2022/07/20 04:08:08;;;;;;;;;;;;;;;;;;5175849;27;19915;-85
2022/07/20 04:10:35;;;;;;;;;;;;;;;;;;5157193;27;19915;-85
2022/07/20 04:13:01;;;;;;;;;;;;;;;;;;5175730;27;19919;-85
2022/07/20 04:15:26;;;;;;;;;;;;;;;;;;5175945;27;20377;-85
2022/07/20 04:17:51;;;;;;;;;;;;;;;;;;5175799;27;20382;-85
2022/07/20 04:20:17;;;;;;;;;;;;;;;;;;5175871;27;19921;-88
2022/07/20 04:22:42;;;;;;;;;;;;;;;;;;5175607;27;19919;-85
2022/07/20 04:25:08;;;;;;;;;;;;;;;;;;5175845;27;20366;-84
2022/07/20 04:27:33;;;;;;;;;;;;;;;;;;5175802;27;20388;-84
2022/07/20 04:29:59;;;;;;;;;;;;;;;;;;5175702;27;19911;-87
2022/07/20 04:32:24;;;;;;;;;;;;;;;;;;5175832;27;19925;-85
2022/07/20 04:34:49;;;;;;;;;;;;;;;;;;5156907;27;20354;-87
2022/07/20 04:37:15;;;;;;;;;;;;;;;;;;5178793;27;19915;-87
2022/07/20 04:39:40;;;;;;;;;;;;;;;;;;5179847;27;20362;-84
2022/07/20 04:42:06;;;;;;;;;;;;;;;;;;5179840;27;20714;-85
2022/07/20 04:44:31;;;;;;;;;;;;;;;;;;5179623;27;19943;-84
2022/07/20 04:46:57;;;;;;;;;;;;;;;;;;5179863;27;19926;-90
2022/07/20 04:49:22;;;;;;;;;;;;;;;;;;5179655;27;19949;-87
2022/07/20 04:51:48;;;;;;;;;;;;;;;;;;5179625;27;19957;-85
2022/07/20 04:54:13;;;;;;;;;;;;;;;;;;5179421;27;20291;-86
2022/07/20 04:56:38;;;;;;;;;;;;;;;;;;5179528;27;19918;-85
2022/07/20 04:59:04;;;;;;;;;;;;;;;;;;5179459;27;19923;-86
2022/07/20 05:01:30;;;;;;;;;;;;;;;;;;5179293;27;19911;-93
2022/07/20 05:03:56;;;;;;;;;;;;;;;;;;5179410;27;19915;-93
2022/07/20 05:06:21;;;;;;;;;;;;;;;;;;5178498;27;20001;-85
2022/07/20 05:08:47;;;;;;;;;;;;;;;;;;5179569;27;19937;-86
2022/07/20 05:11:12;;;;;;;;;;;;;;;;;;5179507;27;20385;-86
2022/07/20 05:13:38;;;;;;;;;;;;;;;;;;5179519;27;19960;-85
2022/07/20 05:16:04;;;;;;;;;;;;;;;;;;5179460;27;20282;-85
2022/07/20 05:18:29;;;;;;;;;;;;;;;;;;5181454;27;19959;-85
2022/07/20 05:33:42;;;;;;;;;;;;;;;;;;5114935;27;2266116;-92
2022/07/20 05:36:08;;;;;;;;;;;;;;;;;;5195315;27;19918;-93
2022/07/20 05:38:34;;;;;;;;;;;;;;;;;;5195103;27;19918;-92
2022/07/20 05:40:59;;;;;;;;;;;;;;;;;;5194893;27;20006;-93
2022/07/20 05:43:25;;;;;;;;;;;;;;;;;;5194950;27;19915;-90
2022/07/20 05:45:51;;;;;;;;;;;;;;;;;;5194892;27;19914;-91
2022/07/20 05:48:16;;;;;;;;;;;;;;;;;;5194788;27;19966;-88
2022/07/20 05:50:42;;;;;;;;;;;;;;;;;;5194601;27;19914;-93
2022/07/20 05:53:09;;;;;;;;;;;;;;;;;;5194854;27;19965;-93
2022/07/20 05:55:35;;;;;;;;;;;;;;;;;;5194656;27;19914;-91
2022/07/20 05:58:01;;;;;;;;;;;;;;;;;;5194759;27;20059;-93
2022/07/20 06:00:27;;;;;;;;;;;;;;;;;;5194805;27;19959;-92
2022/07/20 06:02:52;;;;;;;;;;;;;;;;;;5194482;27;19919;-92
2022/07/20 06:05:18;;;;;;;;;;;;;;;;;;5194444;27;19921;-92
2022/07/20 06:07:43;;;;;;;;;;;;;;;;;;5194418;27;19921;-92
2022/07/20 06:10:10;;;;;;;;;;;;;;;;;;5194227;27;19914;-95
2022/07/20 06:12:35;;;;;;;;;;;;;;;;;;5194493;27;19983;-83
2022/07/20 06:15:01;;;;;;;;;;;;;;;;;;5194174;27;20289;-90
2022/07/20 06:17:33;;;;;;;;;;;;;;;;;;5194042;27;19918;-83
2022/07/20 06:20:00;;;;;;;;;;;;;;;;;;5175271;27;19959;-84
2022/07/20 06:22:26;;;;;;;;;;;;;;;;;;5194182;27;19928;-84
2022/07/20 06:24:51;;;;;;;;;;;;;;;;;;5194005;27;20006;-92
2022/07/20 06:27:17;;;;;;;;;;;;;;;;;;5193850;27;19915;-84
2022/07/20 06:29:42;;;;;;;;;;;;;;;;;;5193874;27;19915;-88
2022/07/20 06:32:08;;;;;;;;;;;;;;;;;;5193672;27;20004;-94
2022/07/20 06:34:33;;;;;;;;;;;;;;;;;;5180419;27;19919;-88
2022/07/20 06:36:58;;;;;;;;;;;;;;;;;;5180225;27;19915;-85
2022/07/20 06:39:24;;;;;;;;;;;;;;;;;;5160951;27;19918;-85
2022/07/20 06:41:49;;;;;;;;;;;;;;;;;;5179555;27;19914;-90
2022/07/20 06:44:15;;;;;;;;;;;;;;;;;;5179517;27;20330;-89
2022/07/20 06:46:40;;;;;;;;;;;;;;;;;;5179311;27;19958;-91
2022/07/20 06:49:06;;;;;;;;;;;;;;;;;;5179347;27;20001;-92
2022/07/20 06:51:31;;;;;;;;;;;;;;;;;;5160786;27;19915;-88
2022/07/20 06:53:57;;;;;;;;;;;;;;;;;;5179550;27;19915;-93
2022/07/20 06:56:22;;;;;;;;;;;;;;;;;;5179415;27;19922;-93
2022/07/20 06:58:48;;;;;;;;;;;;;;;;;;5179525;27;19950;-91
2022/07/20 07:01:13;;;;;;;;;;;;;;;;;;5179148;27;19926;-90
2022/07/20 07:03:39;;;;;;;;;;;;;;;;;;5179187;27;19974;-92
2022/07/20 07:06:04;;;;;;;;;;;;;;;;;;5179024;27;19915;-92
2022/07/20 07:08:30;;;;;;;;;;;;;;;;;;5179591;27;19922;-85
2022/07/20 07:10:55;;;;;;;;;;;;;;;;;;5178914;27;19923;-92
2022/07/20 07:13:20;;;;;;;;;;;;;;;;;;5179183;27;19915;-92
2022/07/20 07:15:46;;;;;;;;;;;;;;;;;;5179077;27;19921;-94
2022/07/20 07:18:12;;;;;;;;;;;;;;;;;;5178766;27;19919;-83
2022/07/20 07:20:37;;;;;;;;;;;;;;;;;;5178728;27;19915;-83
2022/07/20 07:23:03;;;;;;;;;;;;;;;;;;5178651;27;20369;-86
2022/07/20 07:25:28;;;;;;;;;;;;;;;;;;5178805;27;20381;-90
2022/07/20 07:27:54;;;;;;;;;;;;;;;;;;5179018;27;19950;-83
2022/07/20 07:30:19;;;;;;;;;;;;;;;;;;5178726;27;19958;-83
2022/07/20 07:32:45;;;;;;;;;;;;;;;;;;5178189;27;19918;-85
2022/07/20 07:35:10;;;;;;;;;;;;;;;;;;5178651;27;19915;-86
2022/07/20 07:37:39;;;;;;;;;;;;;;;;;;5178533;27;19915;-90
2022/07/20 07:40:05;;;;;;;;;;;;;;;;;;5178575;27;19931;-85
2022/07/20 07:42:30;;;;;;;;;;;;;;;;;;5178154;27;20300;-85
2022/07/20 07:44:56;;;;;;;;;;;;;;;;;;5177524;27;19959;-85
2022/07/20 07:47:21;;;;;;;;;;;;;;;;;;5178542;27;20029;-83
2022/07/20 07:49:47;;;;;;;;;;;;;;;;;;5178175;27;20353;-89
2022/07/20 07:52:12;;;;;;;;;;;;;;;;;;5178498;27;19915;-91
2022/07/20 07:54:38;;;;;;;;;;;;;;;;;;5178156;27;19918;-85
2022/07/20 07:57:03;;;;;;;;;;;;;;;;;;5178026;27;19918;-87
2022/07/20 07:59:29;;;;;;;;;;;;;;;;;;5178079;27;19911;-85
2022/07/20 08:01:54;;;;;;;;;;;;;;;;;;5177939;27;19915;-87
2022/07/20 08:04:20;;;;;;;;;;;;;;;;;;5178093;27;19915;-90
2022/07/20 08:06:45;;;;;;;;;;;;;;;;;;5177901;27;20246;-87
2022/07/20 08:09:11;;;;;;;;;;;;;;;;;;5177813;27;20013;-92
2022/07/20 08:11:36;;;;;;;;;;;;;;;;;;5177783;27;19917;-93
2022/07/20 08:14:02;;;;;;;;;;;;;;;;;;5177795;27;19922;-92
2022/07/20 08:16:29;;;;;;;;;;;;;;;;;;5177985;27;19914;-84
2022/07/20 08:18:54;;;;;;;;;;;;;;;;;;5177774;27;20373;-87
2022/07/20 08:21:20;;;;;;;;;;;;;;;;;;5177581;27;19973;-93
2022/07/20 08:23:45;;;;;;;;;;;;;;;;;;5177593;27;19968;-92
2022/07/20 08:26:11;;;;;;;;;;;;;;;;;;5177641;27;19977;-91
2022/07/20 08:28:37;;;;;;;;;;;;;;;;;;5177727;27;19966;-94
2022/07/20 08:31:02;;;;;;;;;;;;;;;;;;5177634;27;19971;-89
2022/07/20 08:33:28;;;;;;;;;;;;;;;;;;5158459;27;19922;-85
2022/07/20 08:35:53;;;;;;;;;;;;;;;;;;5177556;27;19919;-92
2022/07/20 08:38:18;;;;;;;;;;;;;;;;;;5177339;27;20370;-85
2022/07/20 08:40:44;;;;;;;;;;;;;;;;;;5177577;27;19915;-92
2022/07/20 08:43:10;;;;;;;;;;;;;;;;;;5177418;27;19967;-90
2022/07/20 08:45:35;;;;;;;;;;;;;;;;;;5177163;27;19915;-92
2022/07/20 08:48:02;;;;;;;;;;;;;;;;;;5177315;27;20286;-93
2022/07/20 08:50:29;;;;;;;;;;;;;;;;;;5177153;27;20349;-93
2022/07/20 08:52:56;;;;;;;;;;;;;;;;;;5177214;27;19915;-91
2022/07/20 08:55:22;;;;;;;;;;;;;;;;;;5177025;27;20393;-83
2022/07/20 08:57:48;;;;;;;;;;;;;;;;;;5171337;27;19915;-83
2022/07/20 09:00:14;;;;;;;;;;;;;;;;;;5176980;27;19919;-83
2022/07/20 09:02:49;;;;;;;;;;;;;;;;;;5180044;27;19967;-84
2022/07/20 09:05:15;;;;;;;;;;;;;;;;;;5184206;27;19922;-84
2022/07/20 09:07:45;;;;;;;;;;;;;;;;;;5164595;27;19915;-92
2022/07/20 09:10:21;;;;;;;;;;;;;;;;;;5159421;27;20389;-92
2022/07/20 09:12:53;;;;;;;;;;;;;;;;;;5156935;27;19998;-92
2022/07/20 09:15:24;;;;;;;;;;;;;;;;;;5156482;27;20377;-92
2022/07/20 09:18:01;;;;;;;;;;;;;;;;;;5156706;27;19961;-92
2022/07/20 09:20:29;;;;;;;;;;;;;;;;;;5156545;27;19915;-93
2022/07/20 09:22:59;;;;;;;;;;;;;;;;;;5155961;27;20289;-94
2022/07/20 09:25:24;;;;;;;;;;;;;;;;;;5155972;27;19929;-94
2022/07/20 09:27:50;;;;;;;;;;;;;;;;;;5156091;27;19915;-93
2022/07/20 09:30:16;;;;;;;;;;;;;;;;;;5156096;27;19983;-94
2022/07/20 09:32:50;;;;;;;;;;;;;;;;;;5156055;27;20018;-92
2022/07/20 09:35:16;;;;;;;;;;;;;;;;;;5155998;27;19926;-93
2022/07/20 09:37:41;;;;;;;;;;;;;;;;;;5137550;27;19919;-93
2022/07/20 09:40:07;;;;;;;;;;;;;;;;;;5155843;27;19964;-94
2022/07/20 09:42:43;;;;;;;;;;;;;;;;;;5155839;27;19915;-94
2022/07/20 09:45:27;;;;;;;;;;;;;;;;;;5156078;27;20010;-92
2022/07/20 09:48:12;;;;;;;;;;;;;;;;;;5155798;27;20314;-92
2022/07/20 09:50:39;;;;;;;;;;;;;;;;;;5155537;27;20424;-91
2022/07/20 09:53:05;;;;;;;;;;;;;;;;;;5155682;27;20352;-94
2022/07/20 09:55:31;;;;;;;;;;;;;;;;;;5156029;27;20397;-88
2022/07/20 09:57:57;;;;;;;;;;;;;;;;;;5155942;27;20266;-93
2022/07/20 10:00:22;;;;;;;;;;;;;;;;;;5155618;27;19919;-90
2022/07/20 10:02:49;;;;;;;;;;;;;;;;;;5155735;27;19929;-90
2022/07/20 10:05:16;;;;;;;;;;;;;;;;;;5155766;27;19915;-93
2022/07/20 10:07:43;;;;;;;;;;;;;;;;;;5155598;27;19934;-91
2022/07/20 10:10:09;;;;;;;;;;;;;;;;;;5159567;27;20381;-93
2022/07/20 10:12:35;;;;;;;;;;;;;;;;;;5159462;27;20014;-87
2022/07/20 10:15:00;;;;;;;;;;;;;;;;;;5159327;27;19918;-85
2022/07/20 10:17:30;;;;;;;;;;;;;;;;;;5159224;27;19915;-91
2022/07/20 10:19:56;;;;;;;;;;;;;;;;;;5159455;27;19919;-94
2022/07/20 10:22:21;;;;;;;;;;;;;;;;;;5159021;27;19915;-94
2022/07/20 10:25:07;;;;;;;;;;;;;;;;;;5159364;27;19922;-93
2022/07/20 10:27:35;;;;;;;;;;;;;;;;;;5159640;27;20296;-92
2022/07/20 10:30:14;;;;;;;;;;;;;;;;;;5159110;27;19915;-90
2022/07/20 10:32:50;;;;;;;;;;;;;;;;;;5159193;27;20354;-90
2022/07/20 10:35:26;;;;;;;;;;;;;;;;;;5159647;27;20378;-85
2022/07/20 10:37:52;;;;;;;;;;;;;;;;;;5159680;27;19950;-89
2022/07/20 10:40:19;;;;;;;;;;;;;;;;;;5159454;27;19915;-92
2022/07/20 10:42:48;;;;;;;;;;;;;;;;;;5159040;27;19962;-86
2022/07/20 10:45:13;;;;;;;;;;;;;;;;;;5158900;27;20018;-92
2022/07/20 10:48:00;;;;;;;;;;;;;;;;;;5158593;27;20377;-90
2022/07/20 10:50:36;;;;;;;;;;;;;;;;;;5158881;27;19915;-86
2022/07/20 10:53:11;;;;;;;;;;;;;;;;;;5158936;27;19915;-86
2022/07/20 10:55:36;;;;;;;;;;;;;;;;;;5159014;27;19971;-88
2022/07/20 10:58:03;;;;;;;;;;;;;;;;;;5158557;27;19950;-86
2022/07/20 11:00:34;;;;;;;;;;;;;;;;;;5158459;27;19915;-94
2022/07/20 11:03:00;;;;;;;;;;;;;;;;;;5158480;27;19915;-94
2022/07/20 11:05:25;;;;;;;;;;;;;;;;;;5158467;27;20373;-92
2022/07/20 11:07:51;;;;;;;;;;;;;;;;;;5158234;27;19918;-92
2022/07/20 11:10:20;;;;;;;;;;;;;;;;;;5158335;27;19915;-94
2022/07/20 11:12:53;;;;;;;;;;;;;;;;;;5158463;27;19912;-87
2022/07/20 11:15:19;;;;;;;;;;;;;;;;;;5158348;27;20056;-90
2022/07/20 11:17:44;;;;;;;;;;;;;;;;;;5158205;27;19980;-92
2022/07/20 11:20:10;;;;;;;;;;;;;;;;;;5158133;27;19922;-89
2022/07/20 11:22:35;;;;;;;;;;;;;;;;;;5158079;27;19915;-93
2022/07/20 11:25:00;;;;;;;;;;;;;;;;;;5158074;27;20006;-86
2022/07/20 11:27:26;;;;;;;;;;;;;;;;;;5157803;27;19969;-92
2022/07/20 11:29:52;;;;;;;;;;;;;;;;;;5157981;27;19915;-88
2022/07/20 11:32:18;;;;;;;;;;;;;;;;;;5157733;27;19919;-93
2022/07/20 11:34:47;;;;;;;;;;;;;;;;;;5157915;27;19923;-92
2022/07/20 11:37:14;;;;;;;;;;;;;;;;;;5157762;27;19915;-92
2022/07/20 11:39:39;;;;;;;;;;;;;;;;;;5157627;27;19915;-94
2022/07/20 11:42:12;;;;;;;;;;;;;;;;;;5157484;27;19915;-92
2022/07/20 11:44:38;;;;;;;;;;;;;;;;;;5157669;27;19915;-93
2022/07/20 11:47:03;;;;;;;;;;;;;;;;;;5157567;27;20338;-88
2022/07/20 11:49:29;;;;;;;;;;;;;;;;;;5157582;27;19959;-90
2022/07/20 11:52:05;;;;;;;;;;;;;;;;;;5157523;27;19915;-90
2022/07/20 11:54:33;;;;;;;;;;;;;;;;;;5157411;27;19915;-89
2022/07/20 11:56:59;;;;;;;;;;;;;;;;;;5157659;27;19915;-92
2022/07/20 11:59:25;;;;;;;;;;;;;;;;;;5157278;27;20374;-93
2022/07/20 12:01:52;;;;;;;;;;;;;;;;;;5157053;27;19966;-92
2022/07/20 12:04:19;;;;;;;;;;;;;;;;;;5157408;27;19918;-93
2022/07/20 12:06:44;;;;;;;;;;;;;;;;;;5139162;27;20250;-90
2022/07/20 12:09:17;;;;;;;;;;;;;;;;;;5157495;27;19960;-91
2022/07/20 12:12:44;;;;;;;;;;;;;;;;;;5157939;27;20439;-86
2022/07/20 12:14:59;;;;;;;;;;;;;;;;;;5150218;27;19930;-92
2022/07/20 12:17:26;;;;;;;;;;;;;;;;;;5157402;27;19915;-93
2022/07/20 12:19:52;;;;;;;;;;;;;;;;;;5157892;27;19911;-87
2022/07/20 12:22:22;;;;;;;;;;;;;;;;;;5157977;27;19966;-94
2022/07/20 12:24:51;;;;;;;;;;;;;;;;;;5158292;27;20370;-88
2022/07/20 12:27:17;;;;;;;;;;;;;;;;;;5158284;27;19918;-95
2022/07/20 12:29:42;;;;;;;;;;;;;;;;;;5158119;27;20009;-96
2022/07/20 12:32:08;;;;;;;;;;;;;;;;;;5130130;27;19945;-89
2022/07/20 12:34:52;;;;;;;;;;;;;;;;;;5117478;28;19959;-95
2022/07/20 12:37:18;;;;;;;;;;;;;;;;;;5116625;28;20375;-88
2022/07/20 12:39:48;;;;;;;;;;;;;;;;;;5116152;28;19927;-89
2022/07/20 12:42:24;;;;;;;;;;;;;;;;;;5115910;28;19919;-90
2022/07/20 12:45:06;;;;;;;;;;;;;;;;;;5116025;28;19957;-87
2022/07/20 12:47:32;;;;;;;;;;;;;;;;;;5115897;28;19923;-92
2022/07/20 12:49:58;;;;;;;;;;;;;;;;;;5115627;28;19916;-89
2022/07/20 12:52:24;;;;;;;;;;;;;;;;;;5115867;28;19916;-90
2022/07/20 12:54:49;;;;;;;;;;;;;;;;;;5115783;28;20389;-93
2022/07/20 12:57:16;;;;;;;;;;;;;;;;;;5127276;27;19998;-85
2022/07/20 12:59:41;;;;;;;;;;;;;;;;;;5141871;27;19923;-89
2022/07/20 13:02:07;;;;;;;;;;;;;;;;;;5133139;28;19916;-85
2022/07/20 13:04:32;;;;;;;;;;;;;;;;;;5141269;27;19923;-85
2022/07/20 13:06:57;;;;;;;;;;;;;;;;;;5137400;27;20362;-95
2022/07/20 13:09:23;;;;;;;;;;;;;;;;;;5143003;27;19980;-93
2022/07/20 13:11:49;;;;;;;;;;;;;;;;;;5135952;27;19961;-94
2022/07/20 13:14:16;;;;;;;;;;;;;;;;;;5136684;27;19915;-94
2022/07/20 13:16:42;;;;;;;;;;;;;;;;;;5135948;27;20010;-92
2022/07/20 13:19:07;;;;;;;;;;;;;;;;;;5135866;27;19967;-93
2022/07/20 13:21:33;;;;;;;;;;;;;;;;;;5135675;27;19940;-94
2022/07/20 13:23:59;;;;;;;;;;;;;;;;;;5135770;27;20059;-94
2022/07/20 13:26:25;;;;;;;;;;;;;;;;;;5135238;27;20290;-93
2022/07/20 13:28:50;;;;;;;;;;;;;;;;;;5135591;27;19920;-94
2022/07/20 13:31:16;;;;;;;;;;;;;;;;;;5135378;28;19923;-95
2022/07/20 13:33:41;;;;;;;;;;;;;;;;;;5172275;27;19970;-94
2022/07/20 13:36:07;;;;;;;;;;;;;;;;;;5176998;27;19918;-94
2022/07/20 13:38:34;;;;;;;;;;;;;;;;;;5176813;27;19915;-91
2022/07/20 13:41:00;;;;;;;;;;;;;;;;;;5176826;27;20352;-92
2022/07/20 13:43:25;;;;;;;;;;;;;;;;;;5177828;27;19975;-92
2022/07/20 13:45:51;;;;;;;;;;;;;;;;;;5181076;27;20374;-93
2022/07/20 13:48:17;;;;;;;;;;;;;;;;;;5180963;27;19915;-93
2022/07/20 13:50:42;;;;;;;;;;;;;;;;;;5180876;27;20292;-91
2022/07/20 13:53:08;;;;;;;;;;;;;;;;;;5181097;27;19919;-88
2022/07/20 13:55:33;;;;;;;;;;;;;;;;;;5180773;27;19919;-92
2022/07/20 13:57:59;;;;;;;;;;;;;;;;;;5180984;27;19915;-91
2022/07/20 14:00:25;;;;;;;;;;;;;;;;;;5180729;27;19950;-90
2022/07/20 14:02:50;;;;;;;;;;;;;;;;;;5180605;27;20373;-94
2022/07/20 14:05:16;;;;;;;;;;;;;;;;;;5180592;27;19915;-88
2022/07/20 14:07:42;;;;;;;;;;;;;;;;;;5180427;27;19911;-92
2022/07/20 14:10:08;;;;;;;;;;;;;;;;;;5180507;27;20285;-93
2022/07/20 14:12:34;;;;;;;;;;;;;;;;;;5180403;27;20357;-90
2022/07/20 14:15:00;;;;;;;;;;;;;;;;;;5180326;27;19995;-87
2022/07/20 14:17:25;;;;;;;;;;;;;;;;;;5180947;27;19915;-93
2022/07/20 14:19:50;;;;;;;;;;;;;;;;;;5180242;27;20014;-93
2022/07/20 14:22:16;;;;;;;;;;;;;;;;;;5180557;27;20289;-92
2022/07/20 14:24:42;;;;;;;;;;;;;;;;;;5180427;27;19922;-93
2022/07/20 14:27:08;;;;;;;;;;;;;;;;;;5180087;27;19915;-92
2022/07/20 14:29:34;;;;;;;;;;;;;;;;;;5180362;27;19922;-95
2022/07/20 14:31:59;;;;;;;;;;;;;;;;;;5180031;27;20025;-90
2022/07/20 14:34:25;;;;;;;;;;;;;;;;;;5180034;27;19923;-90
2022/07/20 14:36:50;;;;;;;;;;;;;;;;;;5179886;27;20392;-93
2022/07/20 14:39:16;;;;;;;;;;;;;;;;;;5179810;27;19915;-92
2022/07/20 14:41:41;;;;;;;;;;;;;;;;;;5179712;27;19922;-88
2022/07/20 14:44:09;;;;;;;;;;;;;;;;;;5179841;27;19923;-88
2022/07/20 14:46:35;;;;;;;;;;;;;;;;;;5179670;27;19925;-91
2022/07/20 14:49:00;;;;;;;;;;;;;;;;;;5179803;27;19915;-94
2022/07/20 14:51:25;;;;;;;;;;;;;;;;;;5180262;27;19919;-93
2022/07/20 14:53:51;;;;;;;;;;;;;;;;;;5160774;27;19929;-91
2022/07/20 14:56:17;;;;;;;;;;;;;;;;;;5179628;27;19919;-88
2022/07/20 14:58:42;;;;;;;;;;;;;;;;;;5179295;27;19915;-87
2022/07/20 15:01:08;;;;;;;;;;;;;;;;;;5179428;27;19915;-92
2022/07/20 15:03:33;;;;;;;;;;;;;;;;;;5179398;27;20017;-93
2022/07/20 15:05:58;;;;;;;;;;;;;;;;;;5179339;27;20355;-86
2022/07/20 15:08:25;;;;;;;;;;;;;;;;;;5179464;27;19971;-91
2022/07/20 15:10:54;;;;;;;;;;;;;;;;;;5160600;27;19921;-94
2022/07/20 15:13:23;;;;;;;;;;;;;;;;;;5160844;27;20251;-88
2022/07/20 15:15:49;;;;;;;;;;;;;;;;;;5179198;27;20293;-92
2022/07/20 15:18:14;;;;;;;;;;;;;;;;;;5179286;27;19914;-86
2022/07/20 15:20:40;;;;;;;;;;;;;;;;;;5160595;27;19962;-91
2022/07/20 15:23:05;;;;;;;;;;;;;;;;;;5178809;27;19921;-89
2022/07/20 15:25:31;;;;;;;;;;;;;;;;;;5179121;27;20005;-95
2022/07/20 15:27:56;;;;;;;;;;;;;;;;;;5179036;27;19917;-93
2022/07/20 15:30:22;;;;;;;;;;;;;;;;;;5178875;27;19947;-93
2022/07/20 15:32:48;;;;;;;;;;;;;;;;;;5178718;27;20289;-92
2022/07/20 15:35:14;;;;;;;;;;;;;;;;;;5178826;27;19914;-88
2022/07/20 15:37:39;;;;;;;;;;;;;;;;;;5178630;27;20259;-93
2022/07/20 15:40:05;;;;;;;;;;;;;;;;;;5178653;27;20014;-86
2022/07/20 15:42:30;;;;;;;;;;;;;;;;;;5178053;27;19921;-85
2022/07/20 15:44:56;;;;;;;;;;;;;;;;;;5178568;27;19922;-94
2022/07/20 15:47:21;;;;;;;;;;;;;;;;;;5159909;27;20436;-88
2022/07/20 15:49:47;;;;;;;;;;;;;;;;;;5178737;27;19922;-90
2022/07/20 15:52:12;;;;;;;;;;;;;;;;;;5178243;27;20006;-88
2022/07/20 15:54:38;;;;;;;;;;;;;;;;;;5178142;27;19914;-93
2022/07/20 15:57:18;;;;;;;;;;;;;;;;;;5177929;27;19919;-94
2022/07/20 15:59:44;;;;;;;;;;;;;;;;;;5178111;27;19914;-85
2022/07/20 16:02:10;;;;;;;;;;;;;;;;;;5159459;27;20288;-91
2022/07/20 16:04:35;;;;;;;;;;;;;;;;;;5178095;27;20385;-88
2022/07/20 16:07:01;;;;;;;;;;;;;;;;;;5177055;27;19915;-85
2022/07/20 16:09:26;;;;;;;;;;;;;;;;;;5178541;27;19915;-88
2022/07/20 16:11:52;;;;;;;;;;;;;;;;;;5178720;27;19915;-87
2022/07/20 16:14:17;;;;;;;;;;;;;;;;;;5177948;27;19938;-92
2022/07/20 16:16:43;;;;;;;;;;;;;;;;;;5177872;27;19922;-85
2022/07/20 16:19:08;;;;;;;;;;;;;;;;;;5177723;27;19926;-85
2022/07/20 16:21:34;;;;;;;;;;;;;;;;;;5177683;27;19923;-93
2022/07/20 16:23:59;;;;;;;;;;;;;;;;;;5177808;27;20378;-92
2022/07/20 16:26:25;;;;;;;;;;;;;;;;;;5177704;27;20055;-92
2022/07/20 16:28:50;;;;;;;;;;;;;;;;;;5177577;27;19922;-90
2022/07/20 16:31:17;;;;;;;;;;;;;;;;;;5177460;27;19979;-90
2022/07/20 16:33:42;;;;;;;;;;;;;;;;;;5177253;27;20005;-88
2022/07/20 16:36:08;;;;;;;;;;;;;;;;;;5177293;27;20055;-91
2022/07/20 16:38:33;;;;;;;;;;;;;;;;;;5177387;27;19922;-93
2022/07/20 16:40:59;;;;;;;;;;;;;;;;;;5177556;27;19974;-93
2022/07/20 16:43:25;;;;;;;;;;;;;;;;;;5177219;27;19914;-87
2022/07/20 16:45:51;;;;;;;;;;;;;;;;;;5177138;27;19915;-91
2022/07/20 16:48:17;;;;;;;;;;;;;;;;;;5177155;27;19918;-89
2022/07/20 16:50:43;;;;;;;;;;;;;;;;;;5177151;27;19915;-86
2022/07/20 16:53:08;;;;;;;;;;;;;;;;;;5177205;27;20385;-92
2022/07/20 16:55:33;;;;;;;;;;;;;;;;;;5177030;27;19937;-86